Tiempo atmosférico en la estación meteorológica de Coruña Del Conde, Burgos (945 m.)



Fecha
DESCASC
Temp. máxima en grados centígrados (hora)
DESCASC
Temp. mínima en grados centígrados (hora)
DESCASC
Temp. media en grados centígrados
DESCASC
Racha de viento máxima en m/sg (hora)
DESCASC
Velocidad máxima media en intervalos de 10 minutos(hora)
DESCASC
Precipitaciones diarias en mm
DESCASC
Precipitaciones de 00:00 a 06:00 en mm
DESCASC
Precipitaciones de 06:00 a 12:00 en mm
DESCASC
Precipitaciones de 12:00 a 18:00 en mm
DESCASC
Precipitaciones de 18:00 a 24:00 en mm
DESCASC
20-09-2020 17.8 (17:00) 12.8 (22:40) 15.3 8.61 (17:10) 5.28 (17:10) 5.8 1.4 3 1 0.4
19-09-2020 16.4 (19:00) 12.1 (08:40) 14.3 14.44 (12:40) 8.89 (12:50) 17.2 8.8 3 5.4 0
18-09-2020 20.8 (15:50) 12.4 (07:30) 16.6 13.61 (07:00) 7.78 (20:00) 29 21.4 7.4 0 0.2
17-09-2020 25.9 (17:30) 15.4 (00:00) 20.6 16.67 (23:00) 8.89 (23:00) 1.2 0.2 0.2 0 0.8
16-09-2020 28.3 (15:50) 13.8 (00:00) 21 9.72 (22:00) 5.28 (22:00) 0 0 0 0 0
15-09-2020 26.4 (17:00) 14.5 (00:00) 20.4 13.33 (00:50) 6.94 (00:50) 9.8 9.6 0.2 0 0
14-09-2020 29.1 (16:50) 17.6 (00:00) 23.4 10.28 (17:50) 6.67 (19:00) 0 0 0 0 0
13-09-2020 31.4 (17:30) 15 (00:00) 23.2 9.44 (23:59) 5.56 (19:20) 0 0 0 0 0
12-09-2020 30.3 (18:00) 9.6 (00:00) 19.9 9.72 (12:40) 4.17 (11:20) 0 0 0 0 0
11-09-2020 28.5 (17:10) 10.1 (00:00) 19.3 8.61 (18:10) 5.56 (19:40) 0 0 0 0 0
10-09-2020 27.4 (16:00) 10 (00:00) 18.7 8.61 (18:40) 5.83 (18:40) 0 0 0 0 0
09-09-2020 27.2 (18:10) 11.6 (00:00) 19.4 8.61 (19:20) 5.56 (19:40) 0 0 0 0 0
08-09-2020 24.7 (17:30) 4.2 (00:00) 14.5 10.28 (12:50) 6.11 (11:10) 0 0 0 0 0
07-09-2020 23.1 (16:30) 6.9 (07:00) 15 11.11 (19:20) 7.22 (19:00) 0 0 0 0 0
06-09-2020 27.8 (17:10) 12.3 (00:00) 20 8.61 (18:00) 5.56 (18:00) 0 0 0 0 0
05-09-2020 31.5 (16:50) 15 (00:00) 23.3 9.17 (19:00) 5.83 (19:10) 0 0 0 0 0
04-09-2020 31.5 (17:00) 15.4 (00:00) 23.4 7.22 (15:00) 4.17 (00:10) 0 0 0 0 0
03-09-2020 29.7 (17:50) 9.2 (00:00) 19.5 7.22 (23:30) 4.72 (23:50) 0 0 0 0 0
02-09-2020 26.2 (17:50) 8.2 (00:00) 17.2 8.89 (18:50) 5.28 (19:20) 0 0 0 0 0
01-09-2020 25.5 (16:00) 11.2 (00:00) 18.3 8.61 (18:00) 5.56 (20:40) 0 0 0 0 0
31-08-2020 22.4 (17:20) 3.2 (00:00) 12.8 8.33 (17:40) 4.17 (15:10) 0 0 0 0 0
30-08-2020 17.6 (15:50) 4.5 (00:00) 11.1 8.89 (13:20) 5.83 (13:50) 0 0 0 0 0
29-08-2020 18.1 (16:10) 8.3 (00:00) 13.2 14.44 (20:50) 9.17 (19:10) 0.2 0 0 0 0.2
28-08-2020 26.2 (16:50) 14 (00:00) 20.1 11.67 (18:00) 6.94 (18:30) 0 0 0 0 0
27-08-2020 32.1 (17:00) 15.1 (00:00) 23.6 8.61 (17:20) 4.72 (17:20) 0 0 0 0 0
26-08-2020 32.9 (16:00) 15.2 (00:00) 24.1 11.67 (16:00) 5 (16:40) 0 0 0 0 0
25-08-2020 32.9 (17:50) 13.3 (00:00) 23.1 10.28 (16:00) 5.28 (15:00) 0 0 0 0 0
24-08-2020 29 (18:00) 11.2 (00:00) 20.1 8.61 (17:30) 4.72 (15:20) 0 0 0 0 0
23-08-2020 28.6 (17:50) 10.7 (00:00) 19.7 7.22 (18:50) 4.72 (18:50) 0 0 0 0 0

Gráficas

Temp. máximas Temp. mínimas Temp. medias Precipitaciones Rachas de viento máximas Velocidades máximas media en intervalos de 10 minutos

Datos horarios

Fecha y hora oficial Temperatura (ºC) Velocidad del viento (km/h) Dirección del viento Racha (km/h) Dirección de racha Precipitación (mm) Presión (hPa) Tendencia (hPa) Humedad (%)
2020-09-21 23:00:00 13.5 0 Calma 4 Sur 0 -- -- 78
2020-09-21 22:00:00 15.2 0 Calma 5 Norte 0 -- -- 71
2020-09-21 21:00:00 16.5 4 Noroeste 7 Noroeste 0 -- -- 70
2020-09-21 20:00:00 18.8 4 Noroeste 15 Oeste 0 -- -- 59
2020-09-21 19:00:00 19.9 5 Noroeste 15 Oeste 0 -- -- 54
2020-09-21 18:00:00 20 9 Noroeste 14 Norte 0 -- -- 50
2020-09-21 17:00:00 19.9 9 Noroeste 20 Noroeste 0 -- -- 57
2020-09-21 16:00:00 19.4 12 Noroeste 22 Oeste 0 -- -- 55
2020-09-21 15:00:00 18.2 12 Noroeste 25 Oeste 0 -- -- 62
2020-09-21 14:00:00 18.6 10 Noroeste 19 Noroeste 0 -- -- 61
2020-09-21 13:00:00 16.8 9 Noroeste 18 Noroeste 0 -- -- 71
2020-09-21 12:00:00 15.5 10 Oeste 17 Oeste 0 -- -- 82
2020-09-21 11:00:00 14.3 8 Oeste 15 Oeste 0 -- -- 89
2020-09-21 10:00:00 13.6 5 Oeste 13 Oeste 0 -- -- 94
2020-09-21 09:00:00 13.1 8 Oeste 13 Oeste 0 -- -- 95
2020-09-21 08:00:00 12.8 2 Noroeste 9 Oeste 0 -- -- 95
2020-09-21 07:00:00 12.8 5 Oeste 12 Noroeste 0 -- -- 94
2020-09-21 06:00:00 13.4 8 Noroeste 14 Noroeste 0 -- -- 94
2020-09-21 05:00:00 13.5 5 Oeste 11 Noroeste 0 -- -- 93
2020-09-21 04:00:00 13.6 7 Noroeste 10 Noroeste 0 -- -- 94
2020-09-21 03:00:00 13.5 3 Oeste 8 Noroeste 0 -- -- 95
2020-09-21 02:00:00 13.8 8 Oeste 15 Sudoeste 1.8 -- -- 95
2020-09-21 01:00:00 13.4 3 Este 6 Este 0.8 -- -- 93
2020-09-21 00:00:00 13.5 3 Sur 7 Este 0 -- -- 91
2020-09-20 23:00:00 12.8 5 Este 8 Este 0 -- -- 92
2020-09-20 22:00:00 13.1 5 Este 8 Este 0 -- -- 91
2020-09-20 21:00:00 14.1 5 Sudoeste 10 Sudoeste 0 -- -- 88
2020-09-20 20:00:00 15.7 5 Sudoeste 9 Sur 0.2 -- -- 88
2020-09-20 19:00:00 15.8 2 Norte 19 Oeste 0.2 -- -- 86
2020-09-20 18:00:00 16.7 11 Oeste 31 Oeste 0 -- -- 75
2020-09-20 17:00:00 17.8 15 Oeste 27 Oeste 0 -- -- 75
2020-09-20 16:00:00 17.5 15 Sudoeste 26 Sudoeste 0 -- -- 76
2020-09-20 15:00:00 16.9 13 Sudoeste 28 Sudoeste 0 -- -- 82
2020-09-20 14:00:00 16.1 15 Sudoeste 31 Sudoeste 0.2 -- -- 90
2020-09-20 13:00:00 15 13 Sudoeste 28 Sudoeste 0.8 -- -- 93
2020-09-20 12:00:00 14.4 11 Sudoeste 22 Sudoeste 0.8 -- -- 95
2020-09-20 11:00:00 14.1 9 Sudoeste 21 Sudoeste 0.6 -- -- 96
2020-09-20 10:00:00 13.7 8 Sudoeste 18 Sudoeste 1.2 -- -- 96
2020-09-20 09:00:00 13.6 9 Sudoeste 18 Sudoeste 0 -- -- 95
2020-09-20 08:00:00 13.5 7 Sudoeste 13 Sudoeste 0 -- -- 95
2020-09-20 07:00:00 13.4 7 Sudoeste 16 Sudoeste 0.4 -- -- 95
2020-09-20 06:00:00 13.4 7 Sudoeste 19 Sudoeste 0.2 -- -- 95
2020-09-20 05:00:00 13.3 8 Sudoeste 16 Sudoeste 1.2 -- -- 94
2020-09-20 04:00:00 13.4 5 Oeste 10 Oeste 0 -- -- 92
2020-09-20 03:00:00 13.1 6 Sudoeste 11 Sudoeste 0 -- -- 91
2020-09-20 02:00:00 13 3 Sudoeste 7 Oeste 0 -- -- 90
2020-09-20 01:00:00 13.1 5 Oeste 13 Sudoeste 0 -- -- 88
2020-09-20 00:00:00 13.7 8 Sudoeste 23 Oeste 0 -- -- 87
2020-09-19 23:00:00 14.4 8 Sudoeste 18 Oeste 0 -- -- 85
2020-09-19 22:00:00 14.1 4 Noroeste 19 Noroeste 0 -- -- 89
2020-09-19 21:00:00 15 5 Oeste 10 Oeste 0 -- -- 85
2020-09-19 20:00:00 15.5 7 Oeste 21 Oeste 0 -- -- 82
2020-09-19 19:00:00 16.4 11 Oeste 23 Sudoeste 0 -- -- 78
2020-09-19 18:00:00 15.8 13 Sudoeste 25 Oeste 0 -- -- 86
2020-09-19 17:00:00 15.2 10 Oeste 19 Oeste 0 -- -- 90
2020-09-19 16:00:00 13.8 7 Oeste 29 Oeste 4.8 -- -- 93
2020-09-19 15:00:00 15.5 18 Oeste 40 Oeste 0.2 -- -- 80
2020-09-19 14:00:00 15.2 24 Oeste 43 Sudoeste 0 -- -- 82
2020-09-19 13:00:00 14.9 28 Sudoeste 52 Sudoeste 0.4 -- -- 84
2020-09-19 12:00:00 15.3 29 Sudoeste 44 Sudoeste 0 -- -- 81
2020-09-19 11:00:00 14 8 Sudoeste 20 Sur 0.4 -- -- 92
2020-09-19 10:00:00 13 6 Sudeste 22 Sudeste 0 -- -- 94
2020-09-19 09:00:00 12.1 10 Sudeste 16 Este 2.4 -- -- 94
2020-09-19 08:00:00 12.2 8 Este 17 Sudeste 0.2 -- -- 93
2020-09-19 07:00:00 12.3 9 Sudeste 17 Sudeste 0 -- -- 93
2020-09-19 06:00:00 12.5 10 Sudeste 17 Sudeste 0 -- -- 93
2020-09-19 05:00:00 12.5 6 Este 13 Sudeste 0 -- -- 93
2020-09-19 04:00:00 12.5 4 Sudeste 14 Sudeste 2.2 -- -- 93
2020-09-19 03:00:00 12.6 9 Sudeste 19 Sudeste 4.4 -- -- 93
2020-09-19 02:00:00 12.7 10 Sudeste 15 Sudeste 1.6 -- -- 93
2020-09-19 01:00:00 12.7 7 Sudeste 15 Sudeste 0.6 -- -- 90
2020-09-19 00:00:00 13 10 Sudeste 22 Sudeste 0 -- -- 85
2020-09-18 23:00:00 12.6 8 Sudeste 17 Este 0 -- -- 89
2020-09-18 22:00:00 12.8 0 Calma 14 Este 0 -- -- 86
2020-09-18 21:00:00 13.7 6 Sudeste 37 Sur 0.2 -- -- 84
2020-09-18 20:00:00 15.8 28 Sur 42 Sur 0 -- -- 73
2020-09-18 19:00:00 18.5 17 Sur 33 Sudeste 0 -- -- 63
2020-09-18 18:00:00 20 22 Sur 29 Sur 0 -- -- 56
2020-09-18 17:00:00 20.4 17 Sudeste 37 Sudeste 0 -- -- 56
2020-09-18 16:00:00 20.6 13 Sur 30 Sudeste 0 -- -- 61
2020-09-18 15:00:00 18.7 5 Sur 12 Sudoeste 0 -- -- 73
2020-09-18 14:00:00 16.8 8 Noroeste 14 Noroeste 0 -- -- 82
2020-09-18 13:00:00 16.7 6 Nordeste 13 Nordeste 0 -- -- 80
2020-09-18 12:00:00 14.3 6 Norte 25 Sudoeste 1.4 -- -- 88
2020-09-18 11:00:00 14.2 18 Noroeste 27 Oeste 0 -- -- 89
2020-09-18 10:00:00 13.5 9 Este 12 Este 0 -- -- 92
2020-09-18 09:00:00 12.6 9 Este 14 Este 0 -- -- 93
2020-09-18 08:00:00 12.6 0 Calma 28 Oeste 1.8 -- -- 92
2020-09-18 07:00:00 14.9 22 Sur 49 Sudoeste 4.2 -- -- 84
2020-09-18 06:00:00 15.3 15 Este 24 Sudeste 2.6 -- -- 93
2020-09-18 05:00:00 14.8 17 Este 25 Este 7.2 -- -- 93
2020-09-18 04:00:00 14.7 14 Este 28 Este 3.4 -- -- 93
2020-09-18 03:00:00 14.5 19 Este 36 Este 2 -- -- 93
2020-09-18 02:00:00 14.3 15 Este 24 Este 3.8 -- -- 92
2020-09-18 01:00:00 14.9 12 Sur 30 Sudeste 2.4 -- -- 90
2020-09-18 00:00:00 15.4 11 Este 40 Sur 0.8 -- -- 80
2020-09-17 23:00:00 19 32 Sur 60 Sur 0 -- -- 59
2020-09-17 22:00:00 20.8 13 Sudeste 30 Sudeste 0 -- -- 59
2020-09-17 21:00:00 21.3 15 Sudeste 26 Sudeste 0 -- -- 57
2020-09-17 20:00:00 22.3 15 Sudeste 33 Sur 0 -- -- 52
2020-09-17 19:00:00 23.9 23 Sur 37 Sur 0 -- -- 46
2020-09-17 18:00:00 25.1 23 Sur 36 Sur 0 -- -- 41
2020-09-17 17:00:00 25.2 16 Sur 27 Sudeste 0 -- -- 42
2020-09-17 16:00:00 25 13 Sur 29 Sur 0 -- -- 43
2020-09-17 15:00:00 24.5 19 Sudeste 33 Sudeste 0 -- -- 45
2020-09-17 14:00:00 23.8 22 Sudeste 36 Sur 0 -- -- 50
2020-09-17 13:00:00 22.3 14 Sudeste 24 Sudeste 0 -- -- 56
2020-09-17 12:00:00 19.8 17 Sudeste 39 Sudeste 0 -- -- 65
2020-09-17 11:00:00 18.9 15 Sudeste 26 Sur 0 -- -- 70
2020-09-17 10:00:00 19 17 Sudeste 30 Sudeste 0 -- -- 65
2020-09-17 09:00:00 18.1 15 Sudeste 25 Sudeste 0 -- -- 68
2020-09-17 08:00:00 17.3 14 Sudeste 27 Sudeste 0 -- -- 70
2020-09-17 07:00:00 18 15 Sudeste 26 Sudeste 0.2 -- -- 68
2020-09-17 06:00:00 17.6 16 Sudeste 25 Este 0 -- -- 72
2020-09-17 05:00:00 16.2 8 Este 13 Este 0 -- -- 82
2020-09-17 04:00:00 17.3 10 Nordeste 15 Nordeste 0 -- -- 77
2020-09-17 03:00:00 18.2 5 Sudeste 10 Este 0 -- -- 71
2020-09-17 02:00:00 18.1 9 Sudoeste 36 Sudeste 0.2 -- -- 73
2020-09-17 01:00:00 20.3 19 Sudeste 32 Sudeste 0 -- -- 59
2020-09-17 00:00:00 20.7 6 Nordeste 11 Este 0 -- -- 57
2020-09-16 23:00:00 21.4 6 Nordeste 27 Este 0 -- -- 55
2020-09-16 22:00:00 22.1 19 Este 35 Este 0 -- -- 54
2020-09-16 21:00:00 23.2 13 Este 18 Este 0 -- -- 42
2020-09-16 20:00:00 25.5 5 Sudeste 13 Sur 0 -- -- 36
2020-09-16 19:00:00 27.3 10 Sur 26 Sudeste 0 -- -- 29
2020-09-16 18:00:00 27.4 6 Este 22 Sudeste 0 -- -- 32
2020-09-16 17:00:00 27.5 8 Este 29 Este 0 -- -- 33
2020-09-16 16:00:00 28.1 10 Este 27 Este 0 -- -- 32
2020-09-16 15:00:00 27.7 9 Sudeste 19 Este 0 -- -- 36
2020-09-16 14:00:00 26.8 9 Este 21 Este 0 -- -- 36
2020-09-16 13:00:00 25.9 12 Sudeste 25 Sudeste 0 -- -- 40
2020-09-16 12:00:00 24.7 5 Sudeste 14 Sudeste 0 -- -- 44
2020-09-16 11:00:00 21.8 4 Nordeste 11 Este 0 -- -- 52
2020-09-16 10:00:00 18.2 3 Sudeste 10 Este 0 -- -- 72
2020-09-16 09:00:00 15.3 5 Nordeste 18 Este 0 -- -- 77
2020-09-16 08:00:00 14.1 5 Sur 15 Este 0 -- -- 79
2020-09-16 07:00:00 14.2 10 Este 13 Este 0 -- -- 79
2020-09-16 06:00:00 14.5 4 Este 9 Este 0 -- -- 78
2020-09-16 05:00:00 15.1 5 Sudeste 11 Sudeste 0 -- -- 77
2020-09-16 04:00:00 14.6 0 Calma 5 Este 0 -- -- 80
2020-09-16 03:00:00 15.5 2 Nordeste 10 Sudeste 0 -- -- 76
2020-09-16 02:00:00 15.9 0 Calma 5 Este 0 -- -- 73
2020-09-16 01:00:00 17.1 4 Este 9 Este 0 -- -- 66
2020-09-16 00:00:00 17.9 8 Este 13 Este 0 -- -- 67
2020-09-15 23:00:00 18.9 4 Sudeste 8 Sudeste 0 -- -- 66
2020-09-15 22:00:00 20.4 3 Norte 8 Nordeste 0 -- -- 61
2020-09-15 21:00:00 21.7 3 Norte 6 Noroeste 0 -- -- 56
2020-09-15 20:00:00 24.4 3 Este 5 Sudoeste 0 -- -- 46
2020-09-15 19:00:00 25.3 0 Calma 10 Sudoeste 0 -- -- 43
2020-09-15 18:00:00 25.6 5 Sudoeste 18 Sur 0 -- -- 42
2020-09-15 17:00:00 26.4 8 Oeste 19 Oeste 0 -- -- 42
2020-09-15 16:00:00 25.7 10 Oeste 22 Sudoeste 0 -- -- 44
2020-09-15 15:00:00 25 12 Oeste 18 Sudoeste 0 -- -- 46
2020-09-15 14:00:00 23.3 6 Sur 19 Sudoeste 0 -- -- 54
2020-09-15 13:00:00 23.3 7 Sur 16 Sudeste 0 -- -- 56
2020-09-15 12:00:00 21.2 11 Sudeste 24 Sudeste 0 -- -- 64
2020-09-15 11:00:00 19.2 14 Sudeste 27 Este 0 -- -- 71
2020-09-15 10:00:00 16.8 17 Este 29 Este 0 -- -- 80
2020-09-15 09:00:00 14.6 14 Sudeste 26 Sudeste 0 -- -- 88
2020-09-15 08:00:00 14.7 14 Este 22 Este 0 -- -- 87
2020-09-15 07:00:00 14.7 10 Este 25 Este 0.2 -- -- 90
2020-09-15 06:00:00 14.6 10 Este 15 Nordeste 0.8 -- -- 90
2020-09-15 05:00:00 14.7 9 Este 21 Sur 4.4 -- -- 89
2020-09-15 04:00:00 15.9 10 Noroeste 20 Nordeste 4.4 -- -- 79
2020-09-15 03:00:00 17.4 8 Nordeste 13 Nordeste 0 -- -- 61
2020-09-15 02:00:00 17.4 11 Norte 35 Oeste 0 -- -- 61
2020-09-15 01:00:00 20.1 23 Oeste 48 Sudoeste 0 -- -- 52
2020-09-15 00:00:00 21.5 15 Sudeste 28 Sudeste 0 -- -- 43
2020-09-14 23:00:00 21.7 15 Sudeste 23 Este 0 -- -- 42
2020-09-14 22:00:00 21.9 12 Este 22 Este 0 -- -- 42
2020-09-14 21:00:00 22.8 12 Este 22 Este 0 -- -- 41
2020-09-14 20:00:00 24.3 10 Sudeste 31 Sudeste 0 -- -- 39
2020-09-14 19:00:00 26.2 24 Sudeste 34 Sudeste 0 -- -- 35
2020-09-14 18:00:00 26.5 21 Sudeste 37 Sudeste 0 -- -- 34
2020-09-14 17:00:00 28.9 21 Sudeste 32 Sudeste 0 -- -- 27
2020-09-14 16:00:00 27.7 13 Sudeste 24 Sur 0 -- -- 29
2020-09-14 15:00:00 28 18 Sur 31 Sudeste 0 -- -- 27
2020-09-14 14:00:00 27.8 16 Sudeste 31 Sudeste 0 -- -- 29
2020-09-14 13:00:00 26.7 15 Sudeste 33 Sudeste 0 -- -- 32
2020-09-14 12:00:00 25.2 16 Sudeste 28 Sudeste 0 -- -- 37
2020-09-14 11:00:00 22.5 16 Sudeste 31 Sudeste 0 -- -- 43
2020-09-14 10:00:00 19.6 15 Sudeste 31 Sudeste 0 -- -- 52
2020-09-14 09:00:00 18.7 19 Este 30 Sudeste 0 -- -- 55
2020-09-14 08:00:00 17.6 11 Este 24 Este 0 -- -- 59
2020-09-14 07:00:00 17.6 10 Este 23 Este 0 -- -- 56
2020-09-14 06:00:00 18.6 15 Este 26 Este 0 -- -- 50
2020-09-14 05:00:00 18.9 12 Este 21 Este 0 -- -- 47
2020-09-14 04:00:00 19.7 12 Este 25 Este 0 -- -- 44
2020-09-14 03:00:00 20.1 15 Sudeste 30 Sudeste 0 -- -- 41
2020-09-14 02:00:00 20.2 19 Sudeste 28 Sudeste 0 -- -- 39
2020-09-14 01:00:00 20.9 16 Sudeste 31 Sudeste 0 -- -- 38
2020-09-14 00:00:00 21.7 17 Este 34 Sudeste 0 -- -- 37
2020-09-13 23:00:00 21.6 8 Sudeste 14 Este 0 -- -- 37
2020-09-13 22:00:00 23.1 8 Sudeste 13 Sudeste 0 -- -- 34
2020-09-13 21:00:00 24.2 9 Este 13 Sudeste 0 -- -- 33
2020-09-13 20:00:00 27.6 10 Sur 27 Sur 0 -- -- 28
2020-09-13 19:00:00 29.7 16 Sudoeste 32 Sudoeste 0 -- -- 25
2020-09-13 18:00:00 30.4 19 Sur 31 Sur 0 -- -- 24
2020-09-13 17:00:00 30.8 13 Sudeste 24 Sur 0 -- -- 23
2020-09-13 16:00:00 31 6 Sudeste 20 Sur 0 -- -- 23
2020-09-13 15:00:00 30.6 10 Sudeste 24 Sur 0 -- -- 22
2020-09-13 14:00:00 29.8 13 Sur 23 Sur 0 -- -- 25
2020-09-13 13:00:00 28.5 12 Sudeste 21 Este 0 -- -- 30
2020-09-13 12:00:00 26.2 12 Este 23 Este 0 -- -- 35
2020-09-13 11:00:00 23.6 15 Este 25 Este 0 -- -- 42
2020-09-13 10:00:00 21.4 16 Este 27 Este 0 -- -- 47
2020-09-13 09:00:00 18.6 14 Este 24 Este 0 -- -- 55
2020-09-13 08:00:00 17.1 14 Este 26 Este 0 -- -- 57
2020-09-13 07:00:00 17.7 13 Este 21 Este 0 -- -- 53
2020-09-13 06:00:00 18.2 12 Este 21 Este 0 -- -- 49
2020-09-13 05:00:00 15.4 7 Este 11 Este 0 -- -- 51
2020-09-13 04:00:00 15.4 9 Este 14 Este 0 -- -- 49
2020-09-13 03:00:00 15.6 8 Sudeste 12 Sudeste 0 -- -- 49
2020-09-13 02:00:00 15.7 6 Nordeste 13 Este 0 -- -- 47
2020-09-13 01:00:00 16.8 7 Este 14 Este 0 -- -- 43
2020-09-13 00:00:00 17.9 11 Este 15 Este 0 -- -- 38
2020-09-12 23:00:00 19 9 Sudeste 18 Nordeste 0 -- -- 33
2020-09-12 22:00:00 21.3 13 Nordeste 20 Nordeste 0 -- -- 30
2020-09-12 21:00:00 22.2 11 Norte 15 Norte 0 -- -- 26
2020-09-12 20:00:00 27.8 5 Oeste 10 Sur 0 -- -- 14
2020-09-12 19:00:00 29 4 Nordeste 14 Oeste 0 -- -- 13
2020-09-12 18:00:00 30.3 3 Este 14 Norte 0 -- -- 13
2020-09-12 17:00:00 29.6 11 Sudoeste 25 Sur 0 -- -- 14
2020-09-12 16:00:00 29.7 9 Sudoeste 23 Sudoeste 0 -- -- 14
2020-09-12 15:00:00 28.6 7 Oeste 19 Nordeste 0 -- -- 14
2020-09-12 14:00:00 27.8 9 Norte 24 Este 0 -- -- 15
2020-09-12 13:00:00 26.7 8 Este 35 Este 0 -- -- 21
2020-09-12 12:00:00 25.3 10 Este 24 Sudeste 0 -- -- 29
2020-09-12 11:00:00 22.7 13 Sudeste 19 Sudeste 0 -- -- 35
2020-09-12 10:00:00 19.3 7 Sudeste 12 Este 0 -- -- 31
2020-09-12 09:00:00 13.6 5 Sudeste 10 Este 0 -- -- 51
2020-09-12 08:00:00 11 3 Este 11 Sudeste 0 -- -- 59
2020-09-12 07:00:00 10 5 Norte 8 Nordeste 0 -- -- 62
2020-09-12 06:00:00 10.6 5 Nordeste 8 Norte 0 -- -- 63
2020-09-12 05:00:00 10.8 3 Norte 9 Sudeste 0 -- -- 64
2020-09-12 04:00:00 13.1 4 Este 15 Este 0 -- -- 56
2020-09-12 03:00:00 12.9 6 Nordeste 12 Este 0 -- -- 57
2020-09-12 02:00:00 14.7 5 Este 14 Sudeste 0 -- -- 53
2020-09-12 01:00:00 15.8 10 Este 13 Este 0 -- -- 47
2020-09-12 00:00:00 16 9 Este 13 Este 0 -- -- 49
2020-09-11 23:00:00 17.4 4 Norte 7 Nordeste 0 -- -- 44
2020-09-11 22:00:00 19.3 5 Nordeste 14 Norte 0 -- -- 39
2020-09-11 21:00:00 21.1 10 Norte 24 Norte 0 -- -- 31
2020-09-11 20:00:00 25 15 Norte 29 Noroeste 0 -- -- 22
2020-09-11 19:00:00 27.3 18 Noroeste 31 Oeste 0 -- -- 21
2020-09-11 18:00:00 28.2 13 Noroeste 30 Noroeste 0 -- -- 20
2020-09-11 17:00:00 28.4 14 Oeste 28 Noroeste 0 -- -- 23
2020-09-11 16:00:00 28 12 Oeste 26 Noroeste 0 -- -- 23
2020-09-11 15:00:00 27.1 13 Oeste 27 Noroeste 0 -- -- 22
2020-09-11 14:00:00 25.5 11 Noroeste 22 Noroeste 0 -- -- 30
2020-09-11 13:00:00 23.8 7 Oeste 15 Oeste 0 -- -- 35
2020-09-11 12:00:00 22.1 6 Sur 13 Sudoeste 0 -- -- 38
2020-09-11 11:00:00 20.1 7 Sur 15 Sudeste 0 -- -- 45
2020-09-11 10:00:00 17.5 8 Sudeste 13 Este 0 -- -- 52
2020-09-11 09:00:00 12.4 0 Calma 7 Nordeste 0 -- -- 69
2020-09-11 08:00:00 10.1 2 Norte 7 Nordeste 0 -- -- 73
2020-09-11 07:00:00 10.4 3 Norte 8 Nordeste 0 -- -- 72
2020-09-11 06:00:00 10.6 3 Nordeste 6 Norte 0 -- -- 71
2020-09-11 05:00:00 12 3 Norte 9 Nordeste 0 -- -- 66
2020-09-11 04:00:00 12.5 3 Norte 5 Norte 0 -- -- 63
2020-09-11 03:00:00 13.6 2 Norte 6 Este 0 -- -- 61
2020-09-11 02:00:00 15.4 5 Este 11 Este 0 -- -- 55
2020-09-11 01:00:00 15.5 5 Nordeste 10 Este 0 -- -- 53
2020-09-11 00:00:00 16.7 5 Sudeste 14 Este 0 -- -- 50
2020-09-10 23:00:00 18 3 Nordeste 9 Nordeste 0 -- -- 46
2020-09-10 22:00:00 19.2 5 Norte 17 Norte 0 -- -- 43
2020-09-10 21:00:00 21.5 13 Norte 29 Norte 0 -- -- 37
2020-09-10 20:00:00 24.3 16 Norte 29 Norte 0 -- -- 31
2020-09-10 19:00:00 26.3 19 Norte 31 Noroeste 0 -- -- 28
2020-09-10 18:00:00 26.8 14 Noroeste 24 Noroeste 0 -- -- 28
2020-09-10 17:00:00 26.4 8 Norte 27 Oeste 0 -- -- 29
2020-09-10 16:00:00 27.4 8 Oeste 23 Noroeste 0 -- -- 30
2020-09-10 15:00:00 26.2 10 Noroeste 24 Oeste 0 -- -- 33
2020-09-10 14:00:00 25.3 11 Sudoeste 22 Oeste 0 -- -- 36
2020-09-10 13:00:00 23.9 5 Sudeste 13 Oeste 0 -- -- 39
2020-09-10 12:00:00 22.3 4 Sudoeste 12 Sudoeste 0 -- -- 43
2020-09-10 11:00:00 19.8 6 Sudoeste 13 Sudoeste 0 -- -- 51
2020-09-10 10:00:00 17.2 5 Sur 9 Sudeste 0 -- -- 59
2020-09-10 09:00:00 11.8 3 Norte 6 Nordeste 0 -- -- 76
2020-09-10 08:00:00 10.8 4 Este 6 Este 0 -- -- 77
2020-09-10 07:00:00 10.2 4 Nordeste 8 Norte 0 -- -- 77
2020-09-10 06:00:00 11 5 Nordeste 10 Norte 0 -- -- 73
2020-09-10 05:00:00 11.2 4 Norte 12 Este 0 -- -- 73
2020-09-10 04:00:00 13.5 5 Este 8 Este 0 -- -- 67
2020-09-10 03:00:00 13.8 5 Este 10 Nordeste 0 -- -- 66
2020-09-10 02:00:00 14.7 3 Norte 13 Este 0 -- -- 62
2020-09-10 01:00:00 15.6 10 Este 12 Este 0 -- -- 60
2020-09-10 00:00:00 17.4 5 Sur 15 Este 0 -- -- 53
2020-09-09 23:00:00 18.7 7 Nordeste 19 Nordeste 0 -- -- 52
2020-09-09 22:00:00 20 12 Norte 25 Norte 0 -- -- 46
2020-09-09 21:00:00 22.1 18 Norte 29 Norte 0 -- -- 35
2020-09-09 20:00:00 24.4 18 Norte 31 Oeste 0 -- -- 29
2020-09-09 19:00:00 26.7 15 Noroeste 30 Noroeste 0 -- -- 26
2020-09-09 18:00:00 27.1 14 Oeste 27 Oeste 0 -- -- 25
2020-09-09 17:00:00 26.6 11 Oeste 23 Oeste 0 -- -- 26
2020-09-09 16:00:00 26.5 14 Noroeste 24 Noroeste 0 -- -- 27
2020-09-09 15:00:00 25.6 9 Sur 22 Sudeste 0 -- -- 28
2020-09-09 14:00:00 25.2 12 Sur 24 Sudeste 0 -- -- 29
2020-09-09 13:00:00 24.1 11 Sur 21 Sur 0 -- -- 31
2020-09-09 12:00:00 22.7 10 Sudeste 24 Este 0 -- -- 34
2020-09-09 11:00:00 20.6 10 Sudeste 16 Sudeste 0 -- -- 39
2020-09-09 10:00:00 17.5 6 Sudeste 12 Sudeste 0 -- -- 45
2020-09-09 09:00:00 13.9 4 Sudeste 9 Sudeste 0 -- -- 53
2020-09-09 08:00:00 11.8 3 Sudeste 20 Este 0 -- -- 56
2020-09-09 07:00:00 14.4 10 Este 23 Este 0 -- -- 49
2020-09-09 06:00:00 14.3 12 Este 23 Este 0 -- -- 49
2020-09-09 05:00:00 14.2 13 Este 19 Este 0 -- -- 49
2020-09-09 04:00:00 13.5 8 Este 17 Este 0 -- -- 49
2020-09-09 03:00:00 13.4 9 Este 15 Este 0 -- -- 49
2020-09-09 02:00:00 13 8 Este 12 Este 0 -- -- 51
2020-09-09 01:00:00 13.8 4 Este 14 Este 0 -- -- 47
2020-09-09 00:00:00 16.2 11 Este 19 Este 0 -- -- 42
2020-09-08 23:00:00 17 9 Este 24 Este 0 -- -- 37
2020-09-08 22:00:00 17.9 11 Sudeste 19 Este 0 -- -- 34
2020-09-08 21:00:00 19.4 9 Este 20 Sudeste 0 -- -- 29
2020-09-08 20:00:00 22.6 14 Sudeste 32 Sudeste 0 -- -- 26
2020-09-08 19:00:00 23.9 17 Sudeste 31 Sudeste 0 -- -- 25
2020-09-08 18:00:00 24.5 15 Sudeste 34 Sudeste 0 -- -- 24
2020-09-08 17:00:00 24.3 19 Sudeste 32 Sudeste 0 -- -- 25
2020-09-08 16:00:00 23.8 12 Sudeste 35 Este 0 -- -- 28
2020-09-08 15:00:00 22.6 12 Sudeste 34 Sudeste 0 -- -- 30
2020-09-08 14:00:00 22.2 17 Este 32 Sudeste 0 -- -- 30
2020-09-08 13:00:00 20.4 20 Sudeste 37 Sudeste 0 -- -- 35
2020-09-08 12:00:00 18.2 19 Este 36 Este 0 -- -- 42
2020-09-08 11:00:00 16.1 20 Este 34 Sudeste 0 -- -- 48
2020-09-08 10:00:00 13.6 12 Sudeste 21 Sudeste 0 -- -- 55
2020-09-08 09:00:00 8.9 11 Sudeste 18 Este 0 -- -- 70
2020-09-08 08:00:00 4.2 4 Norte 10 Este 0 -- -- 79
2020-09-08 07:00:00 6.3 9 Este 10 Este 0 -- -- 74
2020-09-08 06:00:00 6.1 4 Este 9 Sur 0 -- -- 71
2020-09-08 05:00:00 7 6 Nordeste 13 Este 0 -- -- 68
2020-09-08 04:00:00 7.9 11 Este 13 Este 0 -- -- 64
2020-09-08 03:00:00 8.4 6 Sudeste 18 Nordeste 0 -- -- 64
2020-09-08 02:00:00 9.3 9 Nordeste 17 Nordeste 0 -- -- 60
2020-09-08 01:00:00 10 8 Norte 12 Norte 0 -- -- 57
2020-09-08 00:00:00 11 7 Norte 15 Nordeste 0 -- -- 51
2020-09-07 23:00:00 12.2 5 Sudoeste 23 Norte 0 -- -- 48
2020-09-07 22:00:00 13.5 15 Nordeste 31 Nordeste 0 -- -- 47
2020-09-07 21:00:00 15.2 21 Nordeste 36 Nordeste 0 -- -- 41
2020-09-07 20:00:00 18.4 21 Norte 40 Norte 0 -- -- 35
2020-09-07 19:00:00 20 26 Norte 38 Norte 0 -- -- 33
2020-09-07 18:00:00 21.7 22 Norte 35 Norte 0 -- -- 30
2020-09-07 17:00:00 23 15 Norte 25 Nordeste 0 -- -- 27
2020-09-07 16:00:00 22.1 8 Este 25 Noroeste 0 -- -- 31
2020-09-07 15:00:00 21.8 6 Noroeste 29 Norte 0 -- -- 32
2020-09-07 14:00:00 20 10 Oeste 22 Norte 0 -- -- 39
2020-09-07 13:00:00 18.7 11 Norte 27 Norte 0 -- -- 40
2020-09-07 12:00:00 17.7 14 Norte 27 Norte 0 -- -- 42
2020-09-07 11:00:00 15.7 10 Nordeste 23 Nordeste 0 -- -- 48
2020-09-07 10:00:00 13.6 13 Norte 21 Norte 0 -- -- 53
2020-09-07 09:00:00 11.2 6 Nordeste 11 Nordeste 0 -- -- 66
2020-09-07 08:00:00 8.2 8 Nordeste 15 Nordeste 0 -- -- 77
2020-09-07 07:00:00 6.9 3 Nordeste 7 Nordeste 0 -- -- 79
2020-09-07 06:00:00 8.3 4 Noroeste 5 Norte 0 -- -- 73
2020-09-07 05:00:00 9 2 Nordeste 7 Norte 0 -- -- 71
2020-09-07 04:00:00 9.6 3 Norte 6 Nordeste 0 -- -- 70
2020-09-07 03:00:00 10 2 Nordeste 10 Nordeste 0 -- -- 69
2020-09-07 02:00:00 11 8 Nordeste 15 Este 0 -- -- 66
2020-09-07 01:00:00 11.7 6 Norte 14 Norte 0 -- -- 61
2020-09-07 00:00:00 12.8 8 Nordeste 14 Nordeste 0 -- -- 57
2020-09-06 23:00:00 14.7 8 Norte 14 Norte 0 -- -- 48
2020-09-06 22:00:00 16.1 7 Norte 22 Nordeste 0 -- -- 47
2020-09-06 21:00:00 18.5 17 Nordeste 25 Norte 0 -- -- 48
2020-09-06 20:00:00 23.8 13 Noroeste 28 Noroeste 0 -- -- 31
2020-09-06 19:00:00 25.7 18 Noroeste 29 Noroeste 0 -- -- 34
2020-09-06 18:00:00 26.7 20 Noroeste 31 Norte 0 -- -- 31
2020-09-06 17:00:00 27.5 14 Noroeste 27 Noroeste 0 -- -- 31
2020-09-06 16:00:00 27.1 17 Oeste 27 Noroeste 0 -- -- 33
2020-09-06 15:00:00 27 12 Noroeste 22 Noroeste 0 -- -- 35
2020-09-06 14:00:00 25.7 8 Noroeste 19 Oeste 0 -- -- 39
2020-09-06 13:00:00 24.3 5 Oeste 16 Sudeste 0 -- -- 45
2020-09-06 12:00:00 22.7 6 Sur 21 Sudeste 0 -- -- 48
2020-09-06 11:00:00 20.4 10 Sudeste 26 Sudeste 0 -- -- 55
2020-09-06 10:00:00 18.4 13 Sudeste 22 Sudeste 0 -- -- 60
2020-09-06 09:00:00 14.4 0 Calma 6 Este 0 -- -- 73
2020-09-06 08:00:00 12.4 0 Calma 5 Norte 0 -- -- 78
2020-09-06 07:00:00 13.3 6 Sur 13 Este 0 -- -- 73
2020-09-06 06:00:00 13.8 6 Nordeste 11 Nordeste 0 -- -- 73
2020-09-06 05:00:00 13.7 5 Nordeste 9 Este 0 -- -- 73
2020-09-06 04:00:00 15.2 5 Sudeste 15 Nordeste 0 -- -- 69
2020-09-06 03:00:00 15.6 6 Nordeste 18 Este 0 -- -- 70
2020-09-06 02:00:00 16.8 8 Sudeste 13 Sudeste 0 -- -- 69
2020-09-06 01:00:00 17.7 9 Este 12 Este 0 -- -- 65
2020-09-06 00:00:00 18.9 3 Este 8 Este 0 -- -- 53
2020-09-05 23:00:00 20 2 Nordeste 18 Nordeste 0 -- -- 52
2020-09-05 22:00:00 21.3 12 Nordeste 18 Nordeste 0 -- -- 50
2020-09-05 21:00:00 23.6 12 Nordeste 24 Norte 0 -- -- 41
2020-09-05 20:00:00 26.8 19 Nordeste 31 Nordeste 0 -- -- 32
2020-09-05 19:00:00 29.1 20 Norte 33 Noroeste 0 -- -- 23
2020-09-05 18:00:00 30.4 17 Noroeste 31 Norte 0 -- -- 24
2020-09-05 17:00:00 31.5 6 Sudoeste 22 Sur 0 -- -- 19
2020-09-05 16:00:00 31 13 Oeste 22 Oeste 0 -- -- 21
2020-09-05 15:00:00 30.4 8 Sudoeste 18 Sudoeste 0 -- -- 24
2020-09-05 14:00:00 29.2 7 Sudoeste 20 Sur 0 -- -- 28
2020-09-05 13:00:00 27.4 10 Sur 21 Sudeste 0 -- -- 30
2020-09-05 12:00:00 25.6 9 Sudeste 19 Sudeste 0 -- -- 33
2020-09-05 11:00:00 23.4 8 Sudeste 17 Sudeste 0 -- -- 37
2020-09-05 10:00:00 20.7 11 Sudeste 18 Sudeste 0 -- -- 43
2020-09-05 09:00:00 17.9 7 Sudeste 12 Sudeste 0 -- -- 51
2020-09-05 08:00:00 15.6 10 Sudeste 14 Este 0 -- -- 57
2020-09-05 07:00:00 15.4 8 Este 14 Este 0 -- -- 58
2020-09-05 06:00:00 15.8 10 Sudeste 15 Este 0 -- -- 56
2020-09-05 05:00:00 16.7 10 Este 12 Este 0 -- -- 53
2020-09-05 04:00:00 17.8 5 Sudeste 9 Este 0 -- -- 50
2020-09-05 03:00:00 19.5 6 Este 16 Este 0 -- -- 46
2020-09-05 02:00:00 20.3 9 Este 20 Este 0 -- -- 44
2020-09-05 01:00:00 20.2 9 Este 17 Este 0 -- -- 39
2020-09-05 00:00:00 20.3 3 Norte 12 Norte 0 -- -- 38
2020-09-04 23:00:00 23.1 11 Este 20 Noroeste 0 -- -- 33
2020-09-04 22:00:00 24.9 4 Norte 6 Nordeste 0 -- -- 29
2020-09-04 21:00:00 27.5 4 Nordeste 8 Sudeste 0 -- -- 25
2020-09-04 20:00:00 30.7 5 Sur 10 Sur 0 -- -- 22
2020-09-04 19:00:00 31.3 4 Sudoeste 19 Oeste 0 -- -- 21
2020-09-04 18:00:00 31.3 10 Noroeste 18 Sudoeste 0 -- -- 22
2020-09-04 17:00:00 31.5 7 Sudeste 22 Sur 0 -- -- 22
2020-09-04 16:00:00 30.9 9 Sur 21 Sur 0 -- -- 22
2020-09-04 15:00:00 29.9 12 Sur 26 Sur 0 -- -- 23
2020-09-04 14:00:00 29 6 Sudoeste 19 Sur 0 -- -- 25
2020-09-04 13:00:00 27.6 8 Sudoeste 17 Sudoeste 0 -- -- 27
2020-09-04 12:00:00 26.5 6 Sur 15 Sudeste 0 -- -- 31
2020-09-04 11:00:00 23.8 12 Sudeste 19 Sudeste 0 -- -- 41
2020-09-04 10:00:00 21.1 12 Sudeste 21 Sudeste 0 -- -- 48
2020-09-04 09:00:00 18.1 12 Sudeste 18 Sudeste 0 -- -- 51
2020-09-04 08:00:00 15.8 10 Este 18 Este 0 -- -- 56
2020-09-04 07:00:00 15.7 7 Sudeste 17 Sudeste 0 -- -- 53
2020-09-04 06:00:00 17.4 10 Este 23 Este 0 -- -- 48
2020-09-04 05:00:00 18.5 15 Este 24 Este 0 -- -- 43
2020-09-04 04:00:00 18.5 10 Este 19 Este 0 -- -- 42
2020-09-04 03:00:00 19.1 8 Este 23 Este 0 -- -- 39
2020-09-04 02:00:00 19.4 14 Este 22 Sudeste 0 -- -- 37
2020-09-04 01:00:00 20.2 12 Este 25 Sudeste 0 -- -- 35
2020-09-04 00:00:00 21.1 17 Este 26 Este 0 -- -- 32
2020-09-03 23:00:00 19 7 Norte 10 Nordeste 0 -- -- 23
2020-09-03 22:00:00 22.8 4 Noroeste 7 Noroeste 0 -- -- 17
2020-09-03 21:00:00 25.7 3 Sur 6 Sur 0 -- -- 14
2020-09-03 20:00:00 28.7 3 Sudeste 12 Sudeste 0 -- -- 12
2020-09-03 19:00:00 29.2 9 Sudeste 21 Sudeste 0 -- -- 11
2020-09-03 18:00:00 29.7 6 Sur 18 Sur 0 -- -- 12
2020-09-03 17:00:00 29.1 8 Noroeste 18 Sudoeste 0 -- -- 13
2020-09-03 16:00:00 28.9 6 Sur 18 Sur 0 -- -- 14
2020-09-03 15:00:00 27.4 8 Oeste 18 Sudoeste 0 -- -- 15
2020-09-03 14:00:00 26.2 9 Sudoeste 18 Sudoeste 0 -- -- 18
2020-09-03 13:00:00 24.2 6 Sudoeste 17 Sudoeste 0 -- -- 27
2020-09-03 12:00:00 22.5 9 Sur 14 Sudeste 0 -- -- 34
2020-09-03 11:00:00 19.5 9 Sudeste 13 Sudeste 0 -- -- 41
2020-09-03 10:00:00 16.2 6 Sudeste 13 Sudeste 0 -- -- 51
2020-09-03 09:00:00 11.9 6 Sudeste 9 Sudeste 0 -- -- 64
2020-09-03 08:00:00 9.4 5 Sudeste 9 Sudeste 0 -- -- 71
2020-09-03 07:00:00 9.5 6 Sudeste 9 Sudeste 0 -- -- 70
2020-09-03 06:00:00 9.8 0 Calma 7 Este 0 -- -- 66
2020-09-03 05:00:00 10.5 8 Este 12 Este 0 -- -- 65
2020-09-03 04:00:00 11.5 5 Nordeste 14 Este 0 -- -- 60
2020-09-03 03:00:00 12.4 9 Este 12 Este 0 -- -- 59
2020-09-03 02:00:00 12.3 4 Nordeste 8 Este 0 -- -- 57
2020-09-03 01:00:00 13.6 6 Este 8 Este 0 -- -- 55
2020-09-03 00:00:00 14.1 5 Este 18 Este 0 -- -- 50
2020-09-02 23:00:00 16 5 Norte 7 Norte 0 -- -- 44
2020-09-02 22:00:00 17.4 4 Noroeste 19 Norte 0 -- -- 41
2020-09-02 21:00:00 19.9 13 Noroeste 24 Noroeste 0 -- -- 33
2020-09-02 20:00:00 23.3 18 Noroeste 30 Noroeste 0 -- -- 27
2020-09-02 19:00:00 25 18 Noroeste 32 Noroeste 0 -- -- 26
2020-09-02 18:00:00 26.2 16 Oeste 30 Noroeste 0 -- -- 26
2020-09-02 17:00:00 25.7 10 Noroeste 25 Oeste 0 -- -- 26
2020-09-02 16:00:00 24.8 11 Oeste 24 Noroeste 0 -- -- 27
2020-09-02 15:00:00 23.9 7 Sudoeste 19 Oeste 0 -- -- 30
2020-09-02 14:00:00 22.5 8 Noroeste 16 Nordeste 0 -- -- 33
2020-09-02 13:00:00 21.2 7 Sudoeste 18 Sudoeste 0 -- -- 35
2020-09-02 12:00:00 19.6 7 Sur 14 Sudeste 0 -- -- 43
2020-09-02 11:00:00 17.4 5 Sudeste 15 Este 0 -- -- 48
2020-09-02 10:00:00 15.1 8 Sudeste 20 Sudeste 0 -- -- 57
2020-09-02 09:00:00 12.2 9 Este 17 Sudeste 0 -- -- 67
2020-09-02 08:00:00 9.3 10 Este 14 Este 0 -- -- 75
2020-09-02 07:00:00 9.6 10 Este 17 Sudeste 0 -- -- 74
2020-09-02 06:00:00 10.1 12 Sudeste 18 Sudeste 0 -- -- 71
2020-09-02 05:00:00 10.5 9 Este 15 Este 0 -- -- 70
2020-09-02 04:00:00 10.9 10 Este 13 Este 0 -- -- 68
2020-09-02 03:00:00 11.3 5 Nordeste 8 Nordeste 0 -- -- 67
2020-09-02 02:00:00 12 6 Este 12 Nordeste 0 -- -- 63
2020-09-02 01:00:00 13.1 4 Este 14 Este 0 -- -- 58
2020-09-02 00:00:00 14.4 7 Este 12 Este 0 -- -- 54
2020-09-01 23:00:00 15.4 9 Nordeste 15 Nordeste 0 -- -- 52
2020-09-01 22:00:00 17.3 12 Nordeste 22 Nordeste 0 -- -- 45
2020-09-01 21:00:00 19.4 15 Norte 29 Norte 0 -- -- 38
2020-09-01 20:00:00 22.9 17 Noroeste 26 Noroeste 0 -- -- 26
2020-09-01 19:00:00 24.3 15 Noroeste 25 Oeste 0 -- -- 22
2020-09-01 18:00:00 25.2 18 Noroeste 31 Noroeste 0 -- -- 23
2020-09-01 17:00:00 24.5 13 Noroeste 26 Noroeste 0 -- -- 23
2020-09-01 16:00:00 25.5 10 Oeste 24 Noroeste 0 -- -- 21
2020-09-01 15:00:00 24.4 8 Sudoeste 22 Noroeste 0 -- -- 24
2020-09-01 14:00:00 23.3 6 Noroeste 20 Sudoeste 0 -- -- 26
2020-09-01 13:00:00 22.4 8 Oeste 15 Oeste 0 -- -- 29
2020-09-01 12:00:00 20.9 8 Sur 18 Oeste 0 -- -- 34
2020-09-01 11:00:00 18.2 6 Sudeste 11 Sudeste 0 -- -- 40
2020-09-01 10:00:00 14.5 3 Sudeste 6 Nordeste 0 -- -- 52
2020-09-01 09:00:00 12.4 0 Calma 6 Este 0 -- -- 57
2020-09-01 08:00:00 11.6 0 Calma 10 Este 0 -- -- 59
2020-09-01 07:00:00 11.6 3 Sur 12 Este 0 -- -- 56
2020-09-01 06:00:00 12.1 6 Nordeste 12 Este 0 -- -- 55
2020-09-01 05:00:00 11.5 3 Nordeste 6 Nordeste 0 -- -- 51
2020-09-01 04:00:00 12.1 4 Norte 14 Sudeste 0 -- -- 49
2020-09-01 03:00:00 12.1 2 Este 9 Este 0 -- -- 47
2020-09-01 02:00:00 12.6 5 Sudeste 10 Sudeste 0 -- -- 45
2020-09-01 01:00:00 12.6 8 Sudeste 9 Sudeste 0 -- -- 45
2020-09-01 00:00:00 14 3 Norte 12 Norte 0 -- -- 42
2020-08-31 23:00:00 15.1 7 Norte 11 Norte 0 -- -- 39
2020-08-31 22:00:00 16 5 Norte 9 Noroeste 0 -- -- 35
2020-08-31 21:00:00 18.1 7 Noroeste 18 Noroeste 0 -- -- 31
2020-08-31 20:00:00 21.3 9 Noroeste 15 Noroeste 0 -- -- 25
2020-08-31 19:00:00 21 11 Noroeste 23 Oeste 0 -- -- 25
2020-08-31 18:00:00 21.9 12 Oeste 30 Oeste 0 -- -- 22
2020-08-31 17:00:00 22.3 15 Noroeste 24 Noroeste 0 -- -- 23
2020-08-31 16:00:00 21.9 10 Oeste 24 Oeste 0 -- -- 26
2020-08-31 15:00:00 20.8 11 Noroeste 26 Noroeste 0 -- -- 29
2020-08-31 14:00:00 19.3 10 Oeste 17 Noroeste 0 -- -- 30
2020-08-31 13:00:00 18.3 7 Sur 14 Sudoeste 0 -- -- 34
2020-08-31 12:00:00 16.6 7 Sur 13 Sudeste 0 -- -- 45
2020-08-31 11:00:00 14.2 8 Sudeste 17 Sudeste 0 -- -- 53
2020-08-31 10:00:00 11.4 12 Sudeste 17 Sudeste 0 -- -- 66
2020-08-31 09:00:00 8 7 Este 13 Este 0 -- -- 81
2020-08-31 08:00:00 3.5 2 Norte 5 Noroeste 0 -- -- 88
2020-08-31 07:00:00 3.9 2 Norte 4 Este 0 -- -- 86
2020-08-31 06:00:00 4.4 3 Nordeste 5 Nordeste 0 -- -- 85
2020-08-31 05:00:00 4.8 0 Calma 4 Nordeste 0 -- -- 83
2020-08-31 04:00:00 5.1 0 Calma 4 Este 0 -- -- 82
2020-08-31 03:00:00 5.9 3 Nordeste 10 Este 0 -- -- 79
2020-08-31 02:00:00 7.2 8 Este 9 Este 0 -- -- 76
2020-08-31 01:00:00 8.2 0 Calma 3 Sudeste 0 -- -- 73
2020-08-31 00:00:00 8.7 0 Calma 6 Norte 0 -- -- 69
2020-08-30 23:00:00 10.2 6 Nordeste 19 Nordeste 0 -- -- 65
2020-08-30 22:00:00 11.4 12 Nordeste 21 Norte 0 -- -- 63
2020-08-30 21:00:00 13.1 10 Nordeste 29 Norte 0 -- -- 54
2020-08-30 20:00:00 15.4 17 Norte 30 Norte 0 -- -- 45
2020-08-30 19:00:00 16 15 Norte 24 Norte 0 -- -- 37
2020-08-30 18:00:00 15.9 17 Norte 31 Noroeste 0 -- -- 41
2020-08-30 17:00:00 16.4 17 Norte 30 Norte 0 -- -- 40
2020-08-30 16:00:00 16.5 15 Norte 31 Noroeste 0 -- -- 38
2020-08-30 15:00:00 17 11 Norte 28 Noroeste 0 -- -- 38
2020-08-30 14:00:00 16.1 21 Norte 32 Noroeste 0 -- -- 38
2020-08-30 13:00:00 14.8 18 Norte 31 Noroeste 0 -- -- 46
2020-08-30 12:00:00 14.6 17 Noroeste 28 Norte 0 -- -- 47
2020-08-30 11:00:00 12.5 17 Norte 27 Norte 0 -- -- 53
2020-08-30 10:00:00 10.9 10 Noroeste 17 Norte 0 -- -- 70
2020-08-30 09:00:00 7.3 7 Oeste 16 Oeste 0 -- -- 88
2020-08-30 08:00:00 4.8 4 Sur 10 Noroeste 0 -- -- 88
2020-08-30 07:00:00 4.5 0 Calma 8 Oeste 0 -- -- 90
2020-08-30 06:00:00 5.4 5 Oeste 12 Oeste 0 -- -- 89
2020-08-30 05:00:00 5.8 6 Noroeste 15 Noroeste 0 -- -- 87
2020-08-30 04:00:00 6.4 8 Noroeste 19 Oeste 0 -- -- 85
2020-08-30 03:00:00 6.3 10 Oeste 16 Oeste 0 -- -- 83
2020-08-30 02:00:00 7.3 9 Oeste 14 Oeste 0 -- -- 77
2020-08-30 01:00:00 8 5 Noroeste 20 Noroeste 0 -- -- 73
2020-08-30 00:00:00 9.2 15 Noroeste 27 Noroeste 0 -- -- 67
2020-08-29 23:00:00 9.8 15 Norte 34 Norte 0 -- -- 68
2020-08-29 22:00:00 10.8 19 Norte 43 Norte 0 -- -- 70
2020-08-29 21:00:00 11.9 25 Norte 52 Norte 0 -- -- 65
2020-08-29 20:00:00 14.3 26 Norte 46 Norte 0 -- -- 58
2020-08-29 19:00:00 16 32 Norte 48 Norte 0.2 -- -- 50
2020-08-29 18:00:00 16.9 23 Norte 32 Norte 0 -- -- 48
2020-08-29 17:00:00 13.7 23 Norte 40 Norte 0 -- -- 70
2020-08-29 16:00:00 17.5 10 Noroeste 45 Noroeste 0 -- -- 44
2020-08-29 15:00:00 17.1 15 Noroeste 31 Noroeste 0 -- -- 42
2020-08-29 14:00:00 15.9 13 Norte 29 Noroeste 0 -- -- 46
2020-08-29 13:00:00 15.5 15 Noroeste 30 Noroeste 0 -- -- 49
2020-08-29 12:00:00 15 14 Noroeste 30 Noroeste 0 -- -- 53
2020-08-29 11:00:00 13.5 17 Noroeste 32 Norte 0 -- -- 58
2020-08-29 10:00:00 12.7 17 Norte 26 Noroeste 0 -- -- 61
2020-08-29 09:00:00 11 10 Noroeste 16 Norte 0 -- -- 68
2020-08-29 08:00:00 8.6 9 Noroeste 15 Norte 0 -- -- 73
2020-08-29 07:00:00 8.9 10 Noroeste 21 Noroeste 0 -- -- 70
2020-08-29 06:00:00 8.7 9 Noroeste 16 Noroeste 0 -- -- 69
2020-08-29 05:00:00 9.8 6 Noroeste 11 Noroeste 0 -- -- 65
2020-08-29 04:00:00 10.9 5 Noroeste 19 Noroeste 0 -- -- 68
2020-08-29 03:00:00 12.3 12 Noroeste 20 Norte 0 -- -- 63
2020-08-29 02:00:00 13.2 15 Norte 25 Norte 0 -- -- 62
2020-08-29 01:00:00 13.3 11 Norte 19 Norte 0 -- -- 65
2020-08-29 00:00:00 14 13 Norte 19 Norte 0 -- -- 64
2020-08-28 23:00:00 15.2 8 Nordeste 17 Norte 0 -- -- 60
2020-08-28 22:00:00 16.7 10 Norte 18 Nordeste 0 -- -- 58
2020-08-28 21:00:00 19.4 10 Norte 31 Noroeste 0 -- -- 46
2020-08-28 20:00:00 22.4 21 Noroeste 36 Noroeste 0 -- -- 37
2020-08-28 19:00:00 25.2 21 Oeste 42 Noroeste 0 -- -- 32
2020-08-28 18:00:00 26.1 22 Noroeste 42 Noroeste 0 -- -- 30
2020-08-28 17:00:00 26.1 18 Oeste 41 Oeste 0 -- -- 29
2020-08-28 16:00:00 25.7 23 Oeste 40 Oeste 0 -- -- 31
2020-08-28 15:00:00 25.2 18 Oeste 33 Oeste 0 -- -- 41
2020-08-28 14:00:00 23.7 16 Oeste 29 Oeste 0 -- -- 51
2020-08-28 13:00:00 22.7 14 Oeste 25 Oeste 0 -- -- 55
2020-08-28 12:00:00 20.3 15 Noroeste 26 Noroeste 0 -- -- 68
2020-08-28 11:00:00 18.3 13 Oeste 28 Oeste 0 -- -- 79
2020-08-28 10:00:00 17.4 14 Oeste 24 Oeste 0 -- -- 84
2020-08-28 09:00:00 16.4 9 Oeste 14 Oeste 0 -- -- 88
2020-08-28 08:00:00 15.7 5 Sudoeste 10 Sudoeste 0 -- -- 87
2020-08-28 07:00:00 15.9 6 Sudoeste 10 Sudoeste 0 -- -- 84
2020-08-28 06:00:00 16.8 5 Sudoeste 13 Oeste 0 -- -- 77
2020-08-28 05:00:00 17.9 10 Oeste 15 Oeste 0 -- -- 71
2020-08-28 04:00:00 18.1 7 Sudeste 10 Sudeste 0 -- -- 55
2020-08-28 03:00:00 19.8 5 Sudoeste 9 Sudoeste 0 -- -- 48
2020-08-28 02:00:00 20.5 4 Sur 11 Sur 0 -- -- 45
2020-08-28 01:00:00 21.2 9 Sur 19 Sudeste 0 -- -- 44
2020-08-28 00:00:00 23 7 Nordeste 12 Norte 0 -- -- 40
2020-08-27 23:00:00 23.3 5 Norte 9 Nordeste 0 -- -- 36
2020-08-27 22:00:00 24.8 6 Norte 18 Noroeste 0 -- -- 33
2020-08-27 21:00:00 27.5 7 Noroeste 17 Noroeste 0 -- -- 28
2020-08-27 20:00:00 30.6 12 Oeste 23 Noroeste 0 -- -- 25
2020-08-27 19:00:00 31.6 13 Oeste 30 Noroeste 0 -- -- 24
2020-08-27 18:00:00 31.9 10 Oeste 31 Oeste 0 -- -- 23
2020-08-27 17:00:00 32.1 12 Oeste 26 Noroeste 0 -- -- 25
2020-08-27 16:00:00 31.4 12 Oeste 29 Noroeste 0 -- -- 27
2020-08-27 15:00:00 30.7 13 Noroeste 28 Oeste 0 -- -- 28
2020-08-27 14:00:00 29.8 13 Noroeste 22 Oeste 0 -- -- 32
2020-08-27 13:00:00 28.5 12 Oeste 23 Oeste 0 -- -- 33
2020-08-27 12:00:00 26.5 7 Oeste 14 Sudoeste 0 -- -- 36
2020-08-27 11:00:00 24.1 5 Sur 12 Sudoeste 0 -- -- 40
2020-08-27 10:00:00 22.1 4 Sur 9 Sudeste 0 -- -- 48
2020-08-27 09:00:00 18.2 3 Este 7 Este 0 -- -- 71
2020-08-27 08:00:00 15.1 3 Este 12 Este 0 -- -- 74
2020-08-27 07:00:00 15.8 7 Este 10 Este 0 -- -- 74
2020-08-27 06:00:00 16.8 4 Sudeste 11 Sudeste 0 -- -- 70
2020-08-27 05:00:00 18 3 Norte 8 Este 0 -- -- 64
2020-08-27 04:00:00 17.7 5 Nordeste 8 Nordeste 0 -- -- 62
2020-08-27 03:00:00 20.6 9 Este 14 Este 0 -- -- 58
2020-08-27 02:00:00 20.6 8 Este 11 Sudeste 0 -- -- 54
2020-08-27 01:00:00 21.8 9 Sudeste 14 Sudeste 0 -- -- 46
2020-08-27 00:00:00 22.6 9 Sudeste 14 Sudeste 0 -- -- 37
2020-08-26 23:00:00 23.7 5 Nordeste 10 Norte 0 -- -- 34
2020-08-26 22:00:00 25.4 6 Norte 14 Norte 0 -- -- 30
2020-08-26 21:00:00 28.3 10 Noroeste 19 Noroeste 0 -- -- 26
2020-08-26 20:00:00 31.4 13 Noroeste 24 Oeste 0 -- -- 22
2020-08-26 19:00:00 32.4 11 Noroeste 28 Oeste 0 -- -- 20
2020-08-26 18:00:00 32.9 9 Oeste 31 Oeste 0 -- -- 20
2020-08-26 17:00:00 32.9 12 Noroeste 28 Oeste 0 -- -- 20
2020-08-26 16:00:00 32.9 17 Oeste 42 Sudoeste 0 -- -- 18
2020-08-26 15:00:00 32.2 11 Sudoeste 26 Sudoeste 0 -- -- 19
2020-08-26 14:00:00 30.7 7 Oeste 18 Sudoeste 0 -- -- 23
2020-08-26 13:00:00 29.5 9 Sudoeste 19 Sudoeste 0 -- -- 24
2020-08-26 12:00:00 27.2 6 Sudoeste 13 Sur 0 -- -- 32
2020-08-26 11:00:00 24.9 9 Sur 13 Sudeste 0 -- -- 40
2020-08-26 10:00:00 21.7 2 Nordeste 6 Norte 0 -- -- 49
2020-08-26 09:00:00 18.9 2 Sudeste 10 Sur 0 -- -- 55
2020-08-26 08:00:00 15.8 4 Sudeste 14 Este 0 -- -- 63
2020-08-26 07:00:00 15.4 8 Este 13 Este 0 -- -- 63
2020-08-26 06:00:00 16.4 5 Nordeste 14 Este 0 -- -- 55
2020-08-26 05:00:00 17.5 6 Este 8 Este 0 -- -- 50
2020-08-26 04:00:00 18 0 Calma 4 Sudeste 0 -- -- 46
2020-08-26 03:00:00 19.8 2 Este 11 Sudeste 0 -- -- 43
2020-08-26 02:00:00 21.3 7 Este 19 Este 0 -- -- 40
2020-08-26 01:00:00 21.1 11 Sudeste 23 Este 0 -- -- 38
2020-08-26 00:00:00 22.6 2 Este 11 Nordeste 0 -- -- 33
2020-08-25 23:00:00 23.5 7 Norte 12 Norte 0 -- -- 30
2020-08-25 22:00:00 25.4 6 Norte 8 Noroeste 0 -- -- 27
2020-08-25 21:00:00 28.8 5 Noroeste 13 Oeste 0 -- -- 22
2020-08-25 20:00:00 31.7 9 Noroeste 23 Oeste 0 -- -- 19
2020-08-25 19:00:00 32.5 13 Oeste 28 Sudoeste 0 -- -- 17
2020-08-25 18:00:00 32.9 13 Sudoeste 29 Sudoeste 0 -- -- 19
2020-08-25 17:00:00 32.6 14 Oeste 35 Oeste 0 -- -- 20
2020-08-25 16:00:00 31.8 15 Oeste 37 Oeste 0 -- -- 20
2020-08-25 15:00:00 31.1 19 Oeste 31 Oeste 0 -- -- 21
2020-08-25 14:00:00 30.2 12 Sudoeste 23 Sur 0 -- -- 25
2020-08-25 13:00:00 29.1 9 Oeste 18 Noroeste 0 -- -- 27
2020-08-25 12:00:00 27.2 6 Sudoeste 13 Oeste 0 -- -- 29
2020-08-25 11:00:00 24.5 6 Sudeste 14 Sudeste 0 -- -- 38
2020-08-25 10:00:00 21.3 10 Sudeste 17 Sudeste 0 -- -- 50
2020-08-25 09:00:00 18.1 5 Este 10 Sudeste 0 -- -- 58
2020-08-25 08:00:00 13.3 4 Nordeste 9 Este 0 -- -- 68
2020-08-25 07:00:00 14 4 Este 10 Sudeste 0 -- -- 65
2020-08-25 06:00:00 14.3 4 Este 11 Este 0 -- -- 62
2020-08-25 05:00:00 15.2 4 Sudeste 9 Este 0 -- -- 59
2020-08-25 04:00:00 14.5 3 Nordeste 5 Nordeste 0 -- -- 52
2020-08-25 03:00:00 14.8 3 Nordeste 8 Este 0 -- -- 51
2020-08-25 02:00:00 17.1 5 Este 11 Sudeste 0 -- -- 43
2020-08-25 01:00:00 18 6 Sudeste 9 Sudeste 0 -- -- 42
2020-08-25 00:00:00 19 2 Nordeste 12 Nordeste 0 -- -- 36
2020-08-24 23:00:00 19.7 7 Nordeste 9 Norte 0 -- -- 35
2020-08-24 22:00:00 22 5 Norte 8 Norte 0 -- -- 31
2020-08-24 21:00:00 25.3 5 Noroeste 17 Oeste 0 -- -- 27
2020-08-24 20:00:00 27.6 12 Noroeste 21 Noroeste 0 -- -- 23
2020-08-24 19:00:00 28.5 15 Noroeste 24 Oeste 0 -- -- 22
2020-08-24 18:00:00 29 13 Oeste 31 Sudoeste 0 -- -- 24
2020-08-24 17:00:00 28.6 10 Noroeste 27 Oeste 0 -- -- 24
2020-08-24 16:00:00 28.5 6 Sudoeste 28 Noroeste 0 -- -- 25
2020-08-24 15:00:00 27.3 8 Noroeste 21 Noroeste 0 -- -- 29
2020-08-24 14:00:00 26.5 8 Sudoeste 17 Oeste 0 -- -- 31
2020-08-24 13:00:00 24.6 6 Nordeste 15 Norte 0 -- -- 37
2020-08-24 12:00:00 23 5 Norte 10 Nordeste 0 -- -- 43
2020-08-24 11:00:00 20.9 3 Noroeste 14 Sudeste 0 -- -- 49
2020-08-24 10:00:00 18.5 8 Este 14 Este 0 -- -- 54
2020-08-24 09:00:00 15.8 3 Este 7 Este 0 -- -- 65
2020-08-24 08:00:00 11.6 3 Norte 6 Este 0 -- -- 78
2020-08-24 07:00:00 11.5 2 Nordeste 8 Nordeste 0 -- -- 78
2020-08-24 06:00:00 12.7 4 Nordeste 11 Este 0 -- -- 74
2020-08-24 05:00:00 13.4 4 Este 19 Este 0 -- -- 71
2020-08-24 04:00:00 14.7 11 Sudeste 15 Sudeste 0 -- -- 69
2020-08-24 03:00:00 15 9 Este 13 Este 0 -- -- 66
2020-08-24 02:00:00 16 7 Este 9 Este 0 -- -- 60
2020-08-24 01:00:00 16.5 6 Este 11 Este 0 -- -- 57
2020-08-24 00:00:00 16.9 6 Nordeste 10 Este 0 -- -- 56
2020-08-23 23:00:00 18.8 7 Este 11 Norte 0 -- -- 50
2020-08-23 22:00:00 20.5 0 Calma 12 Noroeste 0 -- -- 41
2020-08-23 21:00:00 22.9 9 Noroeste 24 Noroeste 0 -- -- 34
2020-08-23 20:00:00 26.1 13 Noroeste 23 Noroeste 0 -- -- 24
2020-08-23 19:00:00 27.3 17 Noroeste 26 Noroeste 0 -- -- 22
2020-08-23 18:00:00 28.3 13 Noroeste 22 Noroeste 0 -- -- 22
2020-08-23 17:00:00 28.5 8 Sudoeste 21 Sudoeste 0 -- -- 23
2020-08-23 16:00:00 27.4 12 Sudoeste 22 Sudoeste 0 -- -- 27
2020-08-23 15:00:00 26.7 10 Oeste 21 Oeste 0 -- -- 31
2020-08-23 14:00:00 25.1 10 Oeste 17 Oeste 0 -- -- 36
2020-08-23 13:00:00 23.2 5 Este 14 Sur 0 -- -- 43
2020-08-23 12:00:00 21.7 6 Sudoeste 14 Sudoeste 0 -- -- 49
2020-08-23 11:00:00 20 6 Sur 11 Sur 0 -- -- 56
2020-08-23 10:00:00 17.2 8 Sudeste 17 Sudeste 0 -- -- 69
2020-08-23 09:00:00 14.9 7 Sudeste 14 Sudeste 0 -- -- 77
2020-08-23 08:00:00 12.1 6 Este 13 Sudeste 0 -- -- 84
2020-08-23 07:00:00 11.4 8 Este 12 Este 0 -- -- 80
2020-08-23 06:00:00 11.7 2 Norte 11 Nordeste 0 -- -- 79
2020-08-23 05:00:00 12.6 3 Nordeste 10 Sudeste 0 -- -- 76
2020-08-23 04:00:00 13.3 6 Este 10 Este 0 -- -- 70
2020-08-23 03:00:00 13.9 8 Sudeste 10 Sudeste 0 -- -- 61
2020-08-23 02:00:00 15 6 Sudoeste 12 Sudeste 0 -- -- 48
2020-08-23 01:00:00 16.3 5 Sudoeste 8 Sudoeste 0 -- -- 43
2020-08-23 00:00:00 17.1 4 Norte 11 Norte 0 -- -- 42